sensor_id;sensor_type;location;lat;lon;timestamp;P1;durP1;ratioP1;P2;durP2;ratioP2
14933;SDS011;7560;51.364;12.384;2023-03-01T00:00:17;24.33;;;13.00;;
14933;SDS011;7560;51.364;12.384;2023-03-01T00:05:19;23.00;;;12.77;;
14933;SDS011;7560;51.364;12.384;2023-03-01T00:10:21;24.75;;;12.18;;
14933;SDS011;7560;51.364;12.384;2023-03-01T00:15:23;20.02;;;11.27;;
14933;SDS011;7560;51.364;12.384;2023-03-01T00:20:24;23.95;;;11.98;;
14933;SDS011;7560;51.364;12.384;2023-03-01T00:25:26;22.08;;;11.60;;
14933;SDS011;7560;51.364;12.384;2023-03-01T00:30:28;19.58;;;11.95;;
14933;SDS011;7560;51.364;12.384;2023-03-01T00:35:31;20.25;;;11.10;;
14933;SDS011;7560;51.364;12.384;2023-03-01T00:40:34;23.55;;;11.35;;
14933;SDS011;7560;51.364;12.384;2023-03-01T00:45:37;24.75;;;11.88;;
14933;SDS011;7560;51.364;12.384;2023-03-01T00:50:39;20.10;;;11.48;;
14933;SDS011;7560;51.364;12.384;2023-03-01T00:55:40;23.33;;;11.95;;
14933;SDS011;7560;51.364;12.384;2023-03-01T01:00:42;23.15;;;11.20;;
14933;SDS011;7560;51.364;12.384;2023-03-01T01:05:44;17.00;;;10.10;;
14933;SDS011;7560;51.364;12.384;2023-03-01T01:10:46;20.08;;;9.98;;
14933;SDS011;7560;51.364;12.384;2023-03-01T01:15:48;18.65;;;10.48;;
14933;SDS011;7560;51.364;12.384;2023-03-01T01:20:50;20.30;;;10.02;;
14933;SDS011;7560;51.364;12.384;2023-03-01T01:25:51;15.80;;;8.98;;
14933;SDS011;7560;51.364;12.384;2023-03-01T01:30:53;17.08;;;9.18;;
14933;SDS011;7560;51.364;12.384;2023-03-01T01:35:55;20.13;;;9.98;;
14933;SDS011;7560;51.364;12.384;2023-03-01T01:40:57;18.83;;;9.57;;
14933;SDS011;7560;51.364;12.384;2023-03-01T01:45:59;17.63;;;9.73;;
14933;SDS011;7560;51.364;12.384;2023-03-01T01:51:04;20.27;;;10.30;;
14933;SDS011;7560;51.364;12.384;2023-03-01T01:56:08;17.92;;;9.48;;
14933;SDS011;7560;51.364;12.384;2023-03-01T02:01:11;16.67;;;9.40;;
14933;SDS011;7560;51.364;12.384;2023-03-01T02:06:27;17.75;;;9.88;;
14933;SDS011;7560;51.364;12.384;2023-03-01T02:11:32;16.70;;;9.25;;
14933;SDS011;7560;51.364;12.384;2023-03-01T02:16:35;14.85;;;9.38;;
14933;SDS011;7560;51.364;12.384;2023-03-01T02:21:38;18.00;;;8.93;;
14933;SDS011;7560;51.364;12.384;2023-03-01T02:26:54;16.77;;;9.15;;
14933;SDS011;7560;51.364;12.384;2023-03-01T02:31:58;17.47;;;9.17;;
14933;SDS011;7560;51.364;12.384;2023-03-01T02:37:11;18.57;;;9.27;;
14933;SDS011;7560;51.364;12.384;2023-03-01T02:42:17;21.60;;;9.77;;
14933;SDS011;7560;51.364;12.384;2023-03-01T02:47:27;17.47;;;9.20;;
14933;SDS011;7560;51.364;12.384;2023-03-01T02:58:12;18.43;;;9.33;;
14933;SDS011;7560;51.364;12.384;2023-03-01T03:03:15;16.33;;;8.30;;
14933;SDS011;7560;51.364;12.384;2023-03-01T03:08:18;14.53;;;8.27;;
14933;SDS011;7560;51.364;12.384;2023-03-01T03:13:25;19.00;;;9.40;;
14933;SDS011;7560;51.364;12.384;2023-03-01T03:18:30;17.53;;;9.10;;
14933;SDS011;7560;51.364;12.384;2023-03-01T03:23:32;21.07;;;10.93;;
14933;SDS011;7560;51.364;12.384;2023-03-01T03:28:34;19.63;;;9.77;;
14933;SDS011;7560;51.364;12.384;2023-03-01T03:33:36;22.00;;;9.97;;
14933;SDS011;7560;51.364;12.384;2023-03-01T03:38:38;18.07;;;9.40;;
14933;SDS011;7560;51.364;12.384;2023-03-01T03:43:41;19.23;;;10.48;;
14933;SDS011;7560;51.364;12.384;2023-03-01T03:48:44;19.07;;;10.10;;
14933;SDS011;7560;51.364;12.384;2023-03-01T03:53:46;21.83;;;10.37;;
14933;SDS011;7560;51.364;12.384;2023-03-01T03:58:48;18.97;;;10.37;;
14933;SDS011;7560;51.364;12.384;2023-03-01T04:03:50;18.73;;;10.20;;
14933;SDS011;7560;51.364;12.384;2023-03-01T04:08:55;21.50;;;10.57;;
14933;SDS011;7560;51.364;12.384;2023-03-01T04:13:59;23.50;;;12.10;;
14933;SDS011;7560;51.364;12.384;2023-03-01T04:19:01;25.00;;;12.10;;
14933;SDS011;7560;51.364;12.384;2023-03-01T04:24:04;23.53;;;10.93;;
14933;SDS011;7560;51.364;12.384;2023-03-01T04:29:05;23.17;;;11.03;;
14933;SDS011;7560;51.364;12.384;2023-03-01T04:34:07;23.23;;;10.73;;
14933;SDS011;7560;51.364;12.384;2023-03-01T04:39:09;20.20;;;10.20;;
14933;SDS011;7560;51.364;12.384;2023-03-01T04:44:13;21.50;;;10.77;;
14933;SDS011;7560;51.364;12.384;2023-03-01T04:49:15;20.37;;;10.50;;
14933;SDS011;7560;51.364;12.384;2023-03-01T04:54:17;22.90;;;11.20;;
14933;SDS011;7560;51.364;12.384;2023-03-01T04:59:19;21.13;;;10.57;;
14933;SDS011;7560;51.364;12.384;2023-03-01T05:04:24;21.07;;;10.63;;
14933;SDS011;7560;51.364;12.384;2023-03-01T05:09:26;22.43;;;10.60;;
14933;SDS011;7560;51.364;12.384;2023-03-01T05:14:28;26.20;;;10.93;;
14933;SDS011;7560;51.364;12.384;2023-03-01T05:19:30;21.33;;;11.00;;
14933;SDS011;7560;51.364;12.384;2023-03-01T05:24:33;23.17;;;11.37;;
14933;SDS011;7560;51.364;12.384;2023-03-01T05:29:35;21.13;;;11.67;;
14933;SDS011;7560;51.364;12.384;2023-03-01T05:34:37;27.10;;;14.03;;
14933;SDS011;7560;51.364;12.384;2023-03-01T05:39:40;23.37;;;12.80;;
14933;SDS011;7560;51.364;12.384;2023-03-01T05:44:43;22.27;;;11.67;;
14933;SDS011;7560;51.364;12.384;2023-03-01T05:49:44;20.13;;;12.70;;
14933;SDS011;7560;51.364;12.384;2023-03-01T05:54:46;22.13;;;12.07;;
14933;SDS011;7560;51.364;12.384;2023-03-01T05:59:48;23.97;;;11.33;;
14933;SDS011;7560;51.364;12.384;2023-03-01T06:04:50;27.47;;;13.03;;
14933;SDS011;7560;51.364;12.384;2023-03-01T06:09:52;24.40;;;12.27;;
14933;SDS011;7560;51.364;12.384;2023-03-01T06:14:53;23.20;;;12.20;;
14933;SDS011;7560;51.364;12.384;2023-03-01T06:19:56;21.03;;;11.53;;
14933;SDS011;7560;51.364;12.384;2023-03-01T06:24:58;22.23;;;11.80;;
14933;SDS011;7560;51.364;12.384;2023-03-01T06:29:59;24.63;;;11.80;;
14933;SDS011;7560;51.364;12.384;2023-03-01T06:35:01;24.40;;;12.10;;
14933;SDS011;7560;51.364;12.384;2023-03-01T06:40:04;26.40;;;11.90;;
14933;SDS011;7560;51.364;12.384;2023-03-01T06:45:10;22.35;;;11.38;;
14933;SDS011;7560;51.364;12.384;2023-03-01T06:50:12;20.17;;;11.50;;
14933;SDS011;7560;51.364;12.384;2023-03-01T06:55:15;21.60;;;11.50;;
14933;SDS011;7560;51.364;12.384;2023-03-01T07:00:17;24.23;;;11.87;;
14933;SDS011;7560;51.364;12.384;2023-03-01T07:05:19;22.45;;;12.43;;
14933;SDS011;7560;51.364;12.384;2023-03-01T07:10:21;21.95;;;11.52;;
14933;SDS011;7560;51.364;12.384;2023-03-01T07:15:23;22.27;;;10.93;;
14933;SDS011;7560;51.364;12.384;2023-03-01T07:20:25;18.83;;;10.48;;
14933;SDS011;7560;51.364;12.384;2023-03-01T07:25:27;20.63;;;10.35;;
14933;SDS011;7560;51.364;12.384;2023-03-01T07:30:30;22.67;;;11.93;;
14933;SDS011;7560;51.364;12.384;2023-03-01T07:35:33;23.83;;;11.30;;
14933;SDS011;7560;51.364;12.384;2023-03-01T07:40:35;21.55;;;11.50;;
14933;SDS011;7560;51.364;12.384;2023-03-01T07:45:37;21.52;;;12.52;;
14933;SDS011;7560;51.364;12.384;2023-03-01T07:50:39;25.13;;;12.55;;
14933;SDS011;7560;51.364;12.384;2023-03-01T07:55:40;26.95;;;12.93;;
14933;SDS011;7560;51.364;12.384;2023-03-01T08:00:42;27.73;;;14.35;;
14933;SDS011;7560;51.364;12.384;2023-03-01T08:05:44;24.58;;;12.77;;
14933;SDS011;7560;51.364;12.384;2023-03-01T08:10:46;22.52;;;12.50;;
14933;SDS011;7560;51.364;12.384;2023-03-01T08:15:48;26.58;;;12.40;;
14933;SDS011;7560;51.364;12.384;2023-03-01T08:20:51;27.13;;;15.57;;
14933;SDS011;7560;51.364;12.384;2023-03-01T08:25:52;22.60;;;11.77;;
14933;SDS011;7560;51.364;12.384;2023-03-01T08:30:54;22.60;;;11.57;;
14933;SDS011;7560;51.364;12.384;2023-03-01T08:36:05;22.80;;;12.18;;
14933;SDS011;7560;51.364;12.384;2023-03-01T08:41:08;25.20;;;12.50;;
14933;SDS011;7560;51.364;12.384;2023-03-01T08:46:10;27.55;;;12.90;;
14933;SDS011;7560;51.364;12.384;2023-03-01T08:51:13;24.08;;;12.55;;
14933;SDS011;7560;51.364;12.384;2023-03-01T08:56:18;31.85;;;14.38;;
14933;SDS011;7560;51.364;12.384;2023-03-01T09:01:20;24.17;;;13.15;;
14933;SDS011;7560;51.364;12.384;2023-03-01T09:06:31;23.55;;;12.98;;
14933;SDS011;7560;51.364;12.384;2023-03-01T09:11:34;24.60;;;12.85;;
14933;SDS011;7560;51.364;12.384;2023-03-01T09:16:36;23.73;;;12.60;;
14933;SDS011;7560;51.364;12.384;2023-03-01T09:21:38;22.45;;;12.57;;
14933;SDS011;7560;51.364;12.384;2023-03-01T09:26:41;25.92;;;13.63;;
14933;SDS011;7560;51.364;12.384;2023-03-01T09:31:44;28.33;;;13.52;;
14933;SDS011;7560;51.364;12.384;2023-03-01T09:36:45;23.77;;;12.50;;
14933;SDS011;7560;51.364;12.384;2023-03-01T09:46:59;23.67;;;12.27;;
14933;SDS011;7560;51.364;12.384;2023-03-01T09:57:54;24.23;;;13.18;;
14933;SDS011;7560;51.364;12.384;2023-03-01T10:03:31;24.00;;;12.82;;
14933;SDS011;7560;51.364;12.384;2023-03-01T10:14:30;20.38;;;11.45;;
14933;SDS011;7560;51.364;12.384;2023-03-01T10:19:54;23.80;;;13.02;;
14933;SDS011;7560;51.364;12.384;2023-03-01T10:25:08;23.40;;;12.27;;
14933;SDS011;7560;51.364;12.384;2023-03-01T10:35:39;23.52;;;12.07;;
14933;SDS011;7560;51.364;12.384;2023-03-01T10:40:56;21.00;;;12.07;;
14933;SDS011;7560;51.364;12.384;2023-03-01T10:46:21;21.45;;;12.88;;
14933;SDS011;7560;51.364;12.384;2023-03-01T10:51:23;21.98;;;12.00;;
14933;SDS011;7560;51.364;12.384;2023-03-01T10:56:25;24.23;;;12.60;;
14933;SDS011;7560;51.364;12.384;2023-03-01T11:01:28;25.48;;;13.13;;
14933;SDS011;7560;51.364;12.384;2023-03-01T11:06:34;23.90;;;12.70;;
14933;SDS011;7560;51.364;12.384;2023-03-01T11:11:37;27.13;;;13.23;;
14933;SDS011;7560;51.364;12.384;2023-03-01T11:16:40;23.77;;;13.50;;
14933;SDS011;7560;51.364;12.384;2023-03-01T11:26:55;27.67;;;14.32;;
14933;SDS011;7560;51.364;12.384;2023-03-01T11:31:59;26.38;;;13.52;;
14933;SDS011;7560;51.364;12.384;2023-03-01T11:37:09;23.13;;;12.57;;
14933;SDS011;7560;51.364;12.384;2023-03-01T11:42:27;22.70;;;12.48;;
14933;SDS011;7560;51.364;12.384;2023-03-01T11:53:17;22.45;;;12.48;;
14933;SDS011;7560;51.364;12.384;2023-03-01T12:09:38;20.70;;;11.40;;
14933;SDS011;7560;51.364;12.384;2023-03-01T12:20:20;18.85;;;10.27;;
14933;SDS011;7560;51.364;12.384;2023-03-01T12:25:41;17.25;;;9.98;;
14933;SDS011;7560;51.364;12.384;2023-03-01T12:41:43;18.52;;;10.85;;
14933;SDS011;7560;51.364;12.384;2023-03-01T12:52:44;19.20;;;11.13;;
14933;SDS011;7560;51.364;12.384;2023-03-01T13:04:12;19.65;;;11.60;;
14933;SDS011;7560;51.364;12.384;2023-03-01T13:14:56;18.63;;;10.35;;
14933;SDS011;7560;51.364;12.384;2023-03-01T13:19:58;19.38;;;11.32;;
14933;SDS011;7560;51.364;12.384;2023-03-01T13:25:01;23.10;;;11.75;;
14933;SDS011;7560;51.364;12.384;2023-03-01T13:35:41;16.48;;;9.52;;
14933;SDS011;7560;51.364;12.384;2023-03-01T13:45:53;17.45;;;8.95;;
14933;SDS011;7560;51.364;12.384;2023-03-01T13:50:57;15.40;;;8.20;;
14933;SDS011;7560;51.364;12.384;2023-03-01T13:56:03;16.52;;;8.30;;
14933;SDS011;7560;51.364;12.384;2023-03-01T14:01:24;12.13;;;7.50;;
14933;SDS011;7560;51.364;12.384;2023-03-01T14:06:31;15.13;;;7.50;;
14933;SDS011;7560;51.364;12.384;2023-03-01T14:11:41;11.65;;;6.95;;
14933;SDS011;7560;51.364;12.384;2023-03-01T14:17:05;10.23;;;6.00;;
14933;SDS011;7560;51.364;12.384;2023-03-01T14:22:31;11.15;;;6.30;;
14933;SDS011;7560;51.364;12.384;2023-03-01T14:27:35;11.68;;;6.55;;
14933;SDS011;7560;51.364;12.384;2023-03-01T14:32:40;10.55;;;6.47;;
14933;SDS011;7560;51.364;12.384;2023-03-01T14:37:42;14.60;;;6.63;;
14933;SDS011;7560;51.364;12.384;2023-03-01T14:42:44;13.13;;;7.55;;
14933;SDS011;7560;51.364;12.384;2023-03-01T14:47:45;15.57;;;6.65;;
14933;SDS011;7560;51.364;12.384;2023-03-01T14:52:49;10.30;;;6.18;;
14933;SDS011;7560;51.364;12.384;2023-03-01T14:57:58;11.23;;;6.80;;
14933;SDS011;7560;51.364;12.384;2023-03-01T15:03:05;10.90;;;6.25;;
14933;SDS011;7560;51.364;12.384;2023-03-01T15:08:32;10.07;;;6.47;;
14933;SDS011;7560;51.364;12.384;2023-03-01T15:13:35;13.80;;;6.78;;
14933;SDS011;7560;51.364;12.384;2023-03-01T15:18:43;12.38;;;7.47;;
14933;SDS011;7560;51.364;12.384;2023-03-01T15:23:59;13.27;;;7.13;;
14933;SDS011;7560;51.364;12.384;2023-03-01T15:29:05;13.98;;;7.65;;
14933;SDS011;7560;51.364;12.384;2023-03-01T15:34:21;13.98;;;7.05;;
14933;SDS011;7560;51.364;12.384;2023-03-01T15:44:33;10.65;;;6.90;;
14933;SDS011;7560;51.364;12.384;2023-03-01T15:49:44;10.80;;;6.40;;
14933;SDS011;7560;51.364;12.384;2023-03-01T15:54:59;10.05;;;5.75;;
14933;SDS011;7560;51.364;12.384;2023-03-01T16:00:03;13.18;;;7.10;;
14933;SDS011;7560;51.364;12.384;2023-03-01T16:05:20;10.43;;;6.13;;
14933;SDS011;7560;51.364;12.384;2023-03-01T16:10:24;11.93;;;6.13;;
14933;SDS011;7560;51.364;12.384;2023-03-01T16:15:30;10.32;;;6.13;;
14933;SDS011;7560;51.364;12.384;2023-03-01T16:20:34;12.55;;;6.20;;
14933;SDS011;7560;51.364;12.384;2023-03-01T16:25:35;12.05;;;6.82;;
14933;SDS011;7560;51.364;12.384;2023-03-01T16:30:38;12.32;;;6.88;;
14933;SDS011;7560;51.364;12.384;2023-03-01T16:35:43;12.30;;;7.22;;
14933;SDS011;7560;51.364;12.384;2023-03-01T16:40:46;11.98;;;6.25;;
14933;SDS011;7560;51.364;12.384;2023-03-01T16:45:49;12.32;;;7.03;;
14933;SDS011;7560;51.364;12.384;2023-03-01T16:50:55;12.63;;;6.63;;
14933;SDS011;7560;51.364;12.384;2023-03-01T16:55:58;14.90;;;7.78;;
14933;SDS011;7560;51.364;12.384;2023-03-01T17:01:19;15.10;;;6.75;;
14933;SDS011;7560;51.364;12.384;2023-03-01T17:06:25;13.93;;;7.13;;
14933;SDS011;7560;51.364;12.384;2023-03-01T17:11:27;14.30;;;6.78;;
14933;SDS011;7560;51.364;12.384;2023-03-01T17:16:31;12.02;;;6.25;;
14933;SDS011;7560;51.364;12.384;2023-03-01T17:21:33;12.77;;;6.60;;
14933;SDS011;7560;51.364;12.384;2023-03-01T17:26:35;13.50;;;7.03;;
14933;SDS011;7560;51.364;12.384;2023-03-01T17:31:37;11.45;;;6.45;;
14933;SDS011;7560;51.364;12.384;2023-03-01T17:36:39;10.93;;;6.47;;
14933;SDS011;7560;51.364;12.384;2023-03-01T17:41:44;10.65;;;6.05;;
14933;SDS011;7560;51.364;12.384;2023-03-01T17:46:46;12.05;;;6.40;;
14933;SDS011;7560;51.364;12.384;2023-03-01T17:51:48;10.63;;;6.45;;
14933;SDS011;7560;51.364;12.384;2023-03-01T17:56:50;11.30;;;6.35;;
14933;SDS011;7560;51.364;12.384;2023-03-01T18:01:52;13.57;;;7.22;;
14933;SDS011;7560;51.364;12.384;2023-03-01T18:06:54;15.15;;;7.75;;
14933;SDS011;7560;51.364;12.384;2023-03-01T18:11:56;11.73;;;6.75;;
14933;SDS011;7560;51.364;12.384;2023-03-01T18:16:59;11.55;;;6.95;;
14933;SDS011;7560;51.364;12.384;2023-03-01T18:22:03;11.93;;;7.15;;
14933;SDS011;7560;51.364;12.384;2023-03-01T18:27:05;12.02;;;6.40;;
14933;SDS011;7560;51.364;12.384;2023-03-01T18:32:08;13.05;;;7.88;;
14933;SDS011;7560;51.364;12.384;2023-03-01T18:37:09;12.73;;;7.28;;
14933;SDS011;7560;51.364;12.384;2023-03-01T18:42:11;13.18;;;7.63;;
14933;SDS011;7560;51.364;12.384;2023-03-01T18:47:14;12.68;;;6.90;;
14933;SDS011;7560;51.364;12.384;2023-03-01T18:52:17;11.73;;;6.45;;
14933;SDS011;7560;51.364;12.384;2023-03-01T18:57:19;9.90;;;6.50;;
14933;SDS011;7560;51.364;12.384;2023-03-01T19:02:20;11.65;;;6.38;;
14933;SDS011;7560;51.364;12.384;2023-03-01T19:07:22;16.20;;;7.78;;
14933;SDS011;7560;51.364;12.384;2023-03-01T19:12:25;21.38;;;11.35;;
14933;SDS011;7560;51.364;12.384;2023-03-01T19:17:28;11.60;;;7.00;;
14933;SDS011;7560;51.364;12.384;2023-03-01T19:22:31;10.15;;;6.25;;
14933;SDS011;7560;51.364;12.384;2023-03-01T19:27:33;12.15;;;6.72;;
14933;SDS011;7560;51.364;12.384;2023-03-01T19:32:35;11.20;;;6.90;;
14933;SDS011;7560;51.364;12.384;2023-03-01T19:37:37;12.68;;;7.85;;
14933;SDS011;7560;51.364;12.384;2023-03-01T19:42:39;12.70;;;7.43;;
14933;SDS011;7560;51.364;12.384;2023-03-01T19:47:40;12.57;;;7.10;;
14933;SDS011;7560;51.364;12.384;2023-03-01T19:52:42;12.40;;;6.50;;
14933;SDS011;7560;51.364;12.384;2023-03-01T19:57:44;11.93;;;6.68;;
14933;SDS011;7560;51.364;12.384;2023-03-01T20:02:46;10.43;;;6.30;;
14933;SDS011;7560;51.364;12.384;2023-03-01T20:07:49;11.30;;;7.22;;
14933;SDS011;7560;51.364;12.384;2023-03-01T20:12:51;13.50;;;6.75;;
14933;SDS011;7560;51.364;12.384;2023-03-01T20:17:53;11.30;;;6.38;;
14933;SDS011;7560;51.364;12.384;2023-03-01T20:22:55;12.43;;;7.00;;
14933;SDS011;7560;51.364;12.384;2023-03-01T20:27:57;8.88;;;6.00;;
14933;SDS011;7560;51.364;12.384;2023-03-01T20:32:58;14.30;;;7.40;;
14933;SDS011;7560;51.364;12.384;2023-03-01T20:38:01;13.02;;;6.85;;
14933;SDS011;7560;51.364;12.384;2023-03-01T20:43:03;12.25;;;7.13;;
14933;SDS011;7560;51.364;12.384;2023-03-01T20:48:08;10.98;;;6.70;;
14933;SDS011;7560;51.364;12.384;2023-03-01T20:53:10;12.82;;;6.97;;
14933;SDS011;7560;51.364;12.384;2023-03-01T20:58:12;15.23;;;8.23;;
14933;SDS011;7560;51.364;12.384;2023-03-01T21:03:16;13.52;;;7.95;;
14933;SDS011;7560;51.364;12.384;2023-03-01T21:08:20;14.07;;;7.03;;
14933;SDS011;7560;51.364;12.384;2023-03-01T21:13:24;15.15;;;8.00;;
14933;SDS011;7560;51.364;12.384;2023-03-01T21:18:27;12.77;;;7.28;;
14933;SDS011;7560;51.364;12.384;2023-03-01T21:23:38;14.13;;;7.38;;
14933;SDS011;7560;51.364;12.384;2023-03-01T21:28:41;12.60;;;7.07;;
14933;SDS011;7560;51.364;12.384;2023-03-01T21:33:46;12.15;;;7.03;;
14933;SDS011;7560;51.364;12.384;2023-03-01T21:38:50;11.77;;;6.85;;
14933;SDS011;7560;51.364;12.384;2023-03-01T21:43:53;14.88;;;7.85;;
14933;SDS011;7560;51.364;12.384;2023-03-01T21:49:01;13.40;;;8.05;;
14933;SDS011;7560;51.364;12.384;2023-03-01T21:54:04;13.63;;;7.43;;
14933;SDS011;7560;51.364;12.384;2023-03-01T21:59:09;14.40;;;7.70;;
14933;SDS011;7560;51.364;12.384;2023-03-01T22:04:15;17.85;;;9.30;;
14933;SDS011;7560;51.364;12.384;2023-03-01T22:09:18;14.25;;;7.80;;
14933;SDS011;7560;51.364;12.384;2023-03-01T22:14:22;13.32;;;7.57;;
14933;SDS011;7560;51.364;12.384;2023-03-01T22:19:24;14.38;;;8.15;;
14933;SDS011;7560;51.364;12.384;2023-03-01T22:24:27;12.48;;;7.35;;
14933;SDS011;7560;51.364;12.384;2023-03-01T22:29:29;14.80;;;7.45;;
14933;SDS011;7560;51.364;12.384;2023-03-01T22:34:30;13.00;;;6.75;;
14933;SDS011;7560;51.364;12.384;2023-03-01T22:39:32;13.13;;;7.72;;
14933;SDS011;7560;51.364;12.384;2023-03-01T22:44:34;13.30;;;7.22;;
14933;SDS011;7560;51.364;12.384;2023-03-01T22:49:36;13.15;;;6.68;;
14933;SDS011;7560;51.364;12.384;2023-03-01T22:54:38;16.05;;;7.35;;
14933;SDS011;7560;51.364;12.384;2023-03-01T22:59:40;12.77;;;7.47;;
14933;SDS011;7560;51.364;12.384;2023-03-01T23:04:42;14.93;;;7.88;;
14933;SDS011;7560;51.364;12.384;2023-03-01T23:09:44;17.17;;;10.20;;
14933;SDS011;7560;51.364;12.384;2023-03-01T23:14:46;17.50;;;8.35;;
14933;SDS011;7560;51.364;12.384;2023-03-01T23:19:47;16.25;;;8.23;;
14933;SDS011;7560;51.364;12.384;2023-03-01T23:24:51;14.68;;;8.15;;
14933;SDS011;7560;51.364;12.384;2023-03-01T23:29:53;13.52;;;7.88;;
14933;SDS011;7560;51.364;12.384;2023-03-01T23:34:55;15.57;;;8.45;;
14933;SDS011;7560;51.364;12.384;2023-03-01T23:40:02;14.77;;;7.55;;
14933;SDS011;7560;51.364;12.384;2023-03-01T23:45:06;13.80;;;8.13;;
14933;SDS011;7560;51.364;12.384;2023-03-01T23:50:09;18.27;;;9.02;;
14933;SDS011;7560;51.364;12.384;2023-03-01T23:55:11;16.77;;;8.73;;
